createdAt,value
2023-04-13T00:01:59.560Z,16.83
2023-04-13T00:07:03.243Z,16.66
2023-04-13T00:12:08.788Z,16.47
2023-04-13T00:17:12.451Z,16.16
2023-04-13T00:22:16.390Z,16.11
2023-04-13T00:27:21.782Z,16.12
2023-04-13T00:32:26.382Z,16.03
2023-04-13T00:37:30.176Z,16.05
2023-04-13T00:42:35.899Z,15.73
2023-04-13T00:47:39.710Z,15.62
2023-04-13T00:52:43.776Z,15.58
2023-04-13T00:57:50.011Z,15.55
2023-04-13T01:02:54.562Z,15.56
2023-04-13T01:08:05.420Z,15.49
2023-04-13T01:13:19.233Z,15.41
2023-04-13T01:18:25.013Z,15.22
2023-04-13T01:23:31.183Z,14.92
2023-04-13T01:28:38.807Z,14.69
2023-04-13T01:33:43.276Z,14.48
2023-04-13T01:38:47.148Z,14.31
2023-04-13T01:43:52.682Z,14.18
2023-04-13T01:48:59.260Z,13.87
2023-04-13T01:54:07.390Z,14.05
2023-04-13T01:59:12.775Z,14.12
2023-04-13T02:04:16.753Z,13.82
2023-04-13T02:09:20.432Z,13.63
2023-04-13T02:14:25.873Z,13.45
2023-04-13T02:19:29.739Z,13.30
2023-04-13T02:24:33.576Z,13.14
2023-04-13T02:29:38.839Z,13.13
2023-04-13T02:34:42.424Z,13.02
2023-04-13T02:39:46.108Z,12.83
2023-04-13T02:44:51.638Z,12.58
2023-04-13T02:49:55.377Z,12.63
2023-04-13T02:54:59.122Z,12.43
2023-04-13T03:00:04.917Z,12.42
2023-04-13T03:05:09.208Z,12.49
2023-04-13T03:10:13.101Z,12.45
2023-04-13T03:15:18.537Z,12.35
2023-04-13T03:20:22.261Z,12.25
2023-04-13T03:25:25.959Z,12.31
2023-04-13T03:30:31.243Z,12.28
2023-04-13T03:35:34.945Z,12.26
2023-04-13T03:40:38.557Z,12.33
2023-04-13T03:45:43.946Z,12.24
2023-04-13T03:50:47.602Z,12.26
2023-04-13T03:55:51.624Z,12.12
2023-04-13T04:00:56.947Z,11.97
2023-04-13T04:06:00.584Z,11.98
2023-04-13T04:11:04.445Z,12.06
2023-04-13T04:16:10.688Z,12.00
2023-04-13T04:21:14.411Z,11.93
2023-04-13T04:26:18.050Z,11.94
2023-04-13T04:31:23.389Z,11.93
2023-04-13T04:36:27.041Z,11.85
2023-04-13T04:41:31.490Z,11.85
2023-04-13T04:46:36.793Z,11.89
2023-04-13T04:51:40.434Z,11.92
2023-04-13T04:56:44.064Z,11.84
2023-04-13T05:01:49.365Z,11.80
2023-04-13T05:06:53.062Z,11.77
2023-04-13T05:11:57.343Z,11.74
2023-04-13T05:17:02.647Z,11.75
2023-04-13T05:22:06.251Z,11.74
2023-04-13T05:27:09.912Z,11.71
2023-04-13T05:32:15.866Z,11.73
2023-04-13T05:37:19.533Z,11.67
2023-04-13T05:42:23.134Z,11.70
2023-04-13T05:47:30.298Z,11.69
2023-04-13T05:52:33.939Z,11.62
2023-04-13T05:57:37.524Z,11.61
2023-04-13T06:02:42.863Z,11.64
2023-04-13T06:07:47.048Z,11.62
2023-04-13T06:12:50.749Z,11.62
2023-04-13T06:17:56.164Z,11.60
2023-04-13T06:22:59.830Z,11.60
2023-04-13T06:28:03.620Z,11.53
2023-04-13T06:33:09.328Z,11.58
2023-04-13T06:38:12.940Z,11.60
2023-04-13T06:43:28.741Z,11.55
2023-04-13T06:48:34.876Z,11.42
2023-04-13T06:53:38.505Z,11.32
2023-04-13T06:58:42.077Z,11.27
2023-04-13T07:03:47.447Z,11.23
2023-04-13T07:08:51.328Z,11.21
2023-04-13T07:13:54.985Z,11.19
2023-04-13T07:19:00.392Z,11.20
2023-04-13T07:24:04.212Z,11.14
2023-04-13T07:29:07.839Z,11.08
2023-04-13T07:34:13.116Z,11.05
2023-04-13T07:39:16.699Z,10.93
2023-04-13T07:44:20.300Z,10.91
2023-04-13T07:49:25.566Z,10.95
2023-04-13T07:54:29.202Z,10.85
2023-04-13T07:59:32.997Z,10.82
2023-04-13T08:04:38.520Z,10.70
2023-04-13T08:09:43.185Z,10.73
2023-04-13T08:14:46.867Z,10.74
2023-04-13T08:19:52.215Z,10.67
2023-04-13T08:24:55.835Z,10.55
2023-04-13T08:29:59.548Z,10.42
2023-04-13T08:35:05.063Z,10.47
2023-04-13T08:40:09.988Z,10.40
2023-04-13T08:45:14.034Z,10.46
2023-04-13T08:50:23.422Z,10.46
2023-04-13T08:55:27.137Z,10.36
2023-04-13T09:00:31.136Z,10.34
2023-04-13T09:05:40.357Z,10.26
2023-04-13T09:10:44.128Z,10.30
2023-04-13T09:15:48.033Z,10.30
2023-04-13T09:21:01.532Z,10.26
2023-04-13T09:26:09.086Z,10.24
2023-04-13T09:31:14.262Z,10.15
2023-04-13T09:36:20.865Z,10.11
2023-04-13T09:41:32.651Z,10.13
2023-04-13T09:46:36.421Z,10.06
2023-04-13T09:51:42.302Z,10.11
2023-04-13T09:56:49.715Z,10.01
2023-04-13T10:01:54.031Z,9.94
2023-04-13T10:06:59.408Z,9.95
2023-04-13T10:12:03.952Z,10.01
2023-04-13T10:17:30.621Z,10.08
2023-04-13T10:22:35.205Z,10.11
2023-04-13T10:27:38.888Z,10.08
2023-04-13T10:32:42.690Z,10.10
2023-04-13T10:37:58.693Z,10.06
2023-04-13T10:43:02.390Z,10.06
2023-04-13T10:48:06.359Z,10.04
2023-04-13T10:53:11.687Z,9.98
2023-04-13T10:58:17.054Z,9.95
2023-04-13T11:03:20.921Z,9.90
2023-04-13T11:08:26.490Z,9.91
2023-04-13T11:13:30.174Z,9.65
2023-04-13T11:18:33.860Z,9.29
2023-04-13T11:23:39.210Z,9.10
2023-04-13T11:28:43.504Z,9.00
2023-04-13T11:33:50.152Z,8.81
2023-04-13T11:38:55.540Z,8.74
2023-04-13T11:44:02.142Z,8.61
2023-04-13T11:49:05.997Z,8.54
2023-04-13T11:54:11.420Z,8.35
2023-04-13T11:59:15.142Z,8.36
2023-04-13T12:04:19.222Z,8.27
2023-04-13T12:09:43.966Z,8.34
2023-04-13T12:15:09.697Z,8.43
2023-04-13T12:20:20.515Z,8.16
2023-04-13T12:25:34.864Z,8.03
2023-04-13T12:30:40.351Z,7.92
2023-04-13T12:35:44.025Z,7.84
2023-04-13T12:40:49.389Z,7.74
2023-04-13T12:45:53.302Z,7.67
2023-04-13T12:50:56.931Z,7.59
2023-04-13T12:56:02.628Z,7.58
2023-04-13T13:01:06.420Z,7.55
2023-04-13T13:06:10.372Z,7.44
2023-04-13T13:11:15.617Z,7.32
2023-04-13T13:16:19.385Z,7.17
2023-04-13T13:21:23.226Z,7.10
2023-04-13T13:26:36.260Z,7.05
2023-04-13T13:31:49.464Z,6.94
2023-04-13T13:36:53.145Z,6.97
2023-04-13T13:41:58.409Z,6.99
2023-04-13T13:47:02.054Z,6.94
2023-04-13T13:52:05.979Z,6.83
2023-04-13T13:57:12.210Z,6.83
2023-04-13T14:02:15.894Z,6.88
2023-04-13T14:07:19.583Z,6.86
2023-04-13T14:12:24.933Z,7.01
2023-04-13T14:17:28.734Z,7.33
2023-04-13T14:22:32.422Z,7.66
2023-04-13T14:27:38.310Z,7.87
2023-04-13T14:32:41.930Z,8.18
2023-04-13T14:37:45.618Z,8.62
2023-04-13T14:42:52.534Z,9.20
2023-04-13T14:47:56.280Z,9.55
2023-04-13T14:52:59.970Z,9.81
2023-04-13T14:58:05.237Z,10.32
2023-04-13T15:03:09.813Z,10.85
2023-04-13T15:08:13.693Z,12.04
2023-04-13T15:13:18.971Z,13.15
2023-04-13T15:18:22.684Z,13.87
2023-04-13T15:23:27.801Z,14.56
2023-04-13T15:28:33.093Z,15.04
2023-04-13T15:33:37.102Z,15.49
2023-04-13T15:38:40.722Z,15.86
2023-04-13T15:43:46.007Z,16.37
2023-04-13T15:48:49.714Z,16.77
2023-04-13T15:53:53.348Z,17.32
2023-04-13T15:58:58.854Z,17.72
2023-04-13T16:04:02.744Z,18.07
2023-04-13T16:09:06.521Z,18.47
2023-04-13T16:14:11.780Z,18.80
2023-04-13T16:19:15.756Z,19.21
2023-04-13T16:24:19.457Z,19.36
2023-04-13T16:29:24.746Z,19.84
2023-04-13T16:34:28.517Z,19.91
2023-04-13T16:39:32.221Z,19.85
2023-04-13T16:44:37.710Z,20.09
2023-04-13T16:49:41.529Z,20.63
2023-04-13T16:54:45.168Z,21.06
2023-04-13T16:59:50.533Z,21.09
2023-04-13T17:04:54.165Z,21.19
2023-04-13T17:09:57.887Z,21.20
2023-04-13T17:15:03.444Z,20.93
2023-04-13T17:20:08.523Z,21.27
2023-04-13T17:25:12.486Z,21.26
2023-04-13T17:30:17.900Z,21.40
2023-04-13T17:35:20.782Z,21.19
2023-04-13T17:40:24.605Z,21.10
2023-04-13T17:45:30.624Z,21.62
2023-04-13T17:50:34.562Z,21.86
2023-04-13T17:55:38.991Z,21.88
2023-04-13T18:00:44.309Z,21.97
2023-04-13T18:05:47.230Z,22.25
2023-04-13T18:10:50.872Z,22.29
2023-04-13T18:15:56.652Z,22.39
2023-04-13T18:21:00.312Z,22.08
2023-04-13T18:26:03.960Z,22.58
2023-04-13T18:31:09.444Z,22.74
2023-04-13T18:36:16.336Z,22.79
2023-04-13T18:41:20.010Z,21.78
2023-04-13T18:46:25.434Z,22.18
2023-04-13T18:51:29.840Z,22.48
2023-04-13T18:56:33.593Z,22.79
2023-04-13T19:01:38.955Z,22.96
2023-04-13T19:06:42.554Z,23.28
2023-04-13T19:11:47.444Z,23.13
2023-04-13T19:16:52.926Z,22.97
2023-04-13T19:21:57.129Z,22.42
2023-04-13T19:27:01.039Z,22.27
2023-04-13T19:32:07.048Z,22.54
2023-04-13T19:37:11.032Z,22.26
2023-04-13T19:42:14.907Z,22.47
2023-04-13T19:47:20.485Z,22.94
2023-04-13T19:52:26.668Z,23.21
2023-04-13T19:57:30.756Z,23.25
2023-04-13T20:02:36.329Z,23.23
2023-04-13T20:07:40.278Z,23.19
2023-04-13T20:12:44.114Z,23.21
2023-04-13T20:17:50.583Z,23.67
2023-04-13T20:22:54.361Z,23.80
2023-04-13T20:27:58.195Z,23.56
2023-04-13T20:33:05.619Z,23.55
2023-04-13T20:38:10.995Z,23.38
2023-04-13T20:43:14.666Z,23.01
2023-04-13T20:53:26.468Z,23.27
2023-04-13T20:58:30.260Z,23.51
2023-04-13T21:03:35.759Z,23.61
2023-04-13T21:08:39.497Z,23.58
2023-04-13T21:13:43.234Z,23.63
2023-04-13T21:18:48.542Z,23.53
2023-04-13T21:23:52.198Z,23.48
2023-04-13T21:28:55.831Z,23.65
2023-04-13T21:34:01.879Z,23.26
2023-04-13T21:39:05.757Z,23.40
2023-04-13T21:44:19.137Z,23.32
2023-04-13T21:49:33.869Z,23.05
2023-04-13T21:54:37.630Z,23.01
2023-04-13T21:59:42.052Z,23.19
2023-04-13T22:04:47.302Z,22.37
2023-04-13T22:09:50.905Z,22.44
2023-04-13T22:14:54.594Z,22.47
2023-04-13T22:19:59.908Z,22.38
2023-04-13T22:25:03.595Z,22.10
2023-04-13T22:30:08.450Z,21.89
2023-04-13T22:35:16.015Z,21.96
2023-04-13T22:40:19.820Z,21.65
2023-04-13T22:45:23.745Z,21.32
2023-04-13T22:50:29.106Z,21.27
2023-04-13T22:55:32.840Z,21.04
2023-04-13T23:00:36.485Z,20.92
2023-04-13T23:05:41.953Z,20.94
2023-04-13T23:10:45.594Z,20.74
2023-04-13T23:15:49.327Z,20.13
2023-04-13T23:20:55.546Z,18.72
2023-04-13T23:25:59.153Z,18.51
2023-04-13T23:31:07.134Z,18.85
2023-04-13T23:36:14.303Z,18.64
2023-04-13T23:41:17.893Z,18.24
2023-04-13T23:46:21.704Z,18.34
2023-04-13T23:51:27.074Z,18.46
2023-04-13T23:56:30.780Z,18.40
